Airway Heights, Washington
Current Conditions -  °F | °C
As of 9:53 AM on Sunday 25 Jan 2015 (Local Time) from KGEG Reporting Station
Broken Clouds Broken Clouds  
Wind Chill: 44°   Ceiling: 11000
Heat Index: 44°   Visibility: 10mi
Dew Point: 40°   Wind: 3mph
Humidity: 85%   Direction: 140°SE
Pressure: 30.24"   Gusts: NA
Location:  47.64°N, 117.59°W
Report Text: KGEG 251753Z 14003KT 10SM FEW012 SCT020 BKN110 BKN190 07/04 A3024 RMK AO2 SLP251 T00670044 10072 20056 53007
Loading
Personal Weather Stations






























Interactive Weather Map New forecast layout! Learn more

10-Day Weather Forecast

Advertisements
Track Severe Weather on mobile